createdAt,value
2018-12-08T00:01:23.048Z,1.00
2018-12-08T00:03:52.361Z,17.20
2018-12-08T00:06:21.613Z,99.90
2018-12-08T00:08:50.881Z,1.00
2018-12-08T00:11:20.185Z,99.90
2018-12-08T00:13:49.464Z,99.90
2018-12-08T00:16:18.799Z,1.00
2018-12-08T00:18:48.065Z,1.00
2018-12-08T00:21:17.359Z,1.00
2018-12-08T00:23:46.626Z,1.00
2018-12-08T00:26:15.908Z,1.00
2018-12-08T00:28:45.162Z,1.00
2018-12-08T00:31:25.705Z,99.90
2018-12-08T00:33:54.972Z,99.90
2018-12-08T00:36:24.238Z,99.90
2018-12-08T00:38:53.509Z,1.00
2018-12-08T00:41:22.791Z,1.00
2018-12-08T00:43:52.061Z,99.90
2018-12-08T00:46:21.333Z,1.00
2018-12-08T00:48:50.598Z,99.90
2018-12-08T00:51:19.852Z,63.20
2018-12-08T00:53:49.108Z,99.90
2018-12-08T00:56:19.516Z,4.00
2018-12-08T00:58:48.777Z,37.80
2018-12-08T01:01:18.016Z,1.00
2018-12-08T01:03:47.279Z,99.90
2018-12-08T01:06:16.583Z,99.90
2018-12-08T01:08:45.807Z,99.90
2018-12-08T01:11:15.066Z,1.00
2018-12-08T01:13:44.346Z,28.80
2018-12-08T01:16:13.749Z,1.00
2018-12-08T01:18:43.018Z,99.90
2018-12-08T01:21:12.353Z,99.90
2018-12-08T01:23:41.765Z,99.90
2018-12-08T01:26:11.132Z,99.90
2018-12-08T01:28:40.446Z,99.90
2018-12-08T01:31:09.697Z,1.00
2018-12-08T01:33:38.941Z,99.90
2018-12-08T01:36:08.306Z,1.00
2018-12-08T01:38:37.513Z,1.00
2018-12-08T01:41:06.785Z,1.00
2018-12-08T01:43:36.039Z,1.00
2018-12-08T01:46:05.273Z,1.00
2018-12-08T01:48:34.516Z,1.00
2018-12-08T01:51:03.812Z,1.00
2018-12-08T01:53:33.155Z,1.00
2018-12-08T01:56:02.467Z,1.00
2018-12-08T01:58:31.772Z,1.00
2018-12-08T02:01:01.109Z,1.00
2018-12-08T02:03:30.421Z,1.00
2018-12-08T02:05:59.666Z,1.00
2018-12-08T02:08:28.921Z,1.00
2018-12-08T02:10:58.162Z,1.00
2018-12-08T02:13:27.413Z,1.00
2018-12-08T02:15:56.690Z,1.00
2018-12-08T02:18:25.965Z,1.00
2018-12-08T02:20:55.381Z,1.00
2018-12-08T02:23:24.680Z,1.00
2018-12-08T02:25:53.929Z,1.00
2018-12-08T02:28:23.273Z,1.00
2018-12-08T02:30:52.533Z,1.00
2018-12-08T02:33:21.841Z,1.00
2018-12-08T02:35:51.109Z,1.00
2018-12-08T02:38:20.411Z,1.00
2018-12-08T02:40:49.697Z,1.00
2018-12-08T02:43:18.938Z,1.00
2018-12-08T02:45:48.274Z,1.00
2018-12-08T02:48:17.508Z,1.00
2018-12-08T02:50:46.758Z,1.00
2018-12-08T02:53:15.994Z,1.00
2018-12-08T02:55:45.240Z,1.00
2018-12-08T02:58:14.477Z,1.00
2018-12-08T03:00:43.728Z,1.00
2018-12-08T03:03:12.946Z,1.00
2018-12-08T03:05:42.192Z,1.00
2018-12-08T03:08:11.428Z,1.00
2018-12-08T03:10:40.706Z,1.00
2018-12-08T03:13:09.943Z,1.00
2018-12-08T03:15:39.172Z,1.00
2018-12-08T03:18:08.432Z,1.00
2018-12-08T03:20:37.695Z,1.00
2018-12-08T03:23:06.941Z,1.00
2018-12-08T03:25:36.172Z,1.00
2018-12-08T03:28:05.527Z,1.00
2018-12-08T03:30:34.755Z,1.00
2018-12-08T03:33:03.994Z,1.00
2018-12-08T03:35:33.240Z,1.00
2018-12-08T03:38:02.497Z,1.00
2018-12-08T03:40:31.755Z,1.00
2018-12-08T03:43:01.072Z,1.00
2018-12-08T03:45:30.291Z,1.00
2018-12-08T03:47:59.536Z,1.00
2018-12-08T03:50:28.891Z,1.00
2018-12-08T03:52:58.163Z,1.00
2018-12-08T03:55:27.389Z,1.00
2018-12-08T03:57:56.774Z,1.00
2018-12-08T04:00:26.042Z,1.00
2018-12-08T04:02:55.284Z,1.00
2018-12-08T04:05:24.614Z,1.00
2018-12-08T04:07:53.858Z,1.00
2018-12-08T04:10:23.117Z,1.00
2018-12-08T04:12:52.362Z,1.00
2018-12-08T04:15:21.634Z,1.00
2018-12-08T04:17:50.981Z,1.00
2018-12-08T04:20:20.250Z,1.00
2018-12-08T04:22:49.464Z,1.00
2018-12-08T04:25:18.684Z,1.00
2018-12-08T04:27:47.912Z,1.00
2018-12-08T04:30:17.158Z,1.00
2018-12-08T04:32:46.423Z,8.80
2018-12-08T04:35:15.740Z,8.00
2018-12-08T04:37:44.983Z,14.10
2018-12-08T04:40:14.365Z,23.60
2018-12-08T04:42:43.582Z,36.00
2018-12-08T04:45:13.110Z,42.10
2018-12-08T04:47:42.341Z,34.50
2018-12-08T04:50:11.712Z,40.00
2018-12-08T04:52:42.558Z,43.30
2018-12-08T04:55:12.241Z,51.40
2018-12-08T04:57:41.515Z,51.70
2018-12-08T05:00:11.054Z,50.50
2018-12-08T05:02:40.275Z,56.30
2018-12-08T05:05:09.561Z,56.90
2018-12-08T05:07:38.796Z,58.90
2018-12-08T05:10:08.689Z,62.80
2018-12-08T05:12:37.936Z,72.80
2018-12-08T05:15:07.419Z,68.50
2018-12-08T05:17:36.732Z,69.10
2018-12-08T05:20:06.204Z,72.40
2018-12-08T05:22:35.494Z,70.20
2018-12-08T05:25:05.218Z,71.60
2018-12-08T05:27:34.453Z,65.20
2018-12-08T05:30:04.057Z,57.30
2018-12-08T05:32:33.336Z,53.00
2018-12-08T05:35:02.695Z,45.40
2018-12-08T05:37:31.958Z,34.10
2018-12-08T05:40:01.246Z,34.10
2018-12-08T05:42:30.487Z,33.90
2018-12-08T05:44:59.720Z,31.50
2018-12-08T05:47:29.084Z,20.40
2018-12-08T05:49:58.396Z,23.70
2018-12-08T05:52:27.676Z,20.30
2018-12-08T05:54:56.913Z,13.50
2018-12-08T05:57:26.181Z,14.70
2018-12-08T05:59:55.393Z,17.10
2018-12-08T06:02:24.637Z,21.00
2018-12-08T06:04:53.943Z,26.90
2018-12-08T06:07:23.217Z,14.50
2018-12-08T06:09:52.464Z,9.40
2018-12-08T06:12:21.797Z,1.00
2018-12-08T06:14:51.058Z,1.00
2018-12-08T06:17:20.301Z,1.00
2018-12-08T06:19:49.572Z,1.00
2018-12-08T06:22:18.780Z,4.30
2018-12-08T06:24:48.044Z,5.30
2018-12-08T06:27:28.412Z,11.00
2018-12-08T06:29:57.653Z,8.10
2018-12-08T06:32:26.883Z,11.80
2018-12-08T06:34:56.172Z,10.20
2018-12-08T06:37:25.428Z,15.30
2018-12-08T06:39:54.857Z,13.80
2018-12-08T06:42:24.107Z,11.00
2018-12-08T06:44:53.329Z,8.10
2018-12-08T06:47:22.598Z,7.30
2018-12-08T06:49:51.798Z,9.00
2018-12-08T06:52:21.036Z,5.50
2018-12-08T06:54:50.352Z,8.80
2018-12-08T06:57:19.609Z,2.60
2018-12-08T06:59:48.845Z,1.00
2018-12-08T07:02:18.173Z,1.00
2018-12-08T07:04:47.392Z,1.00
2018-12-08T07:07:16.734Z,1.00
2018-12-08T07:09:46.066Z,1.00
2018-12-08T07:12:15.387Z,2.40
2018-12-08T07:14:44.604Z,1.00
2018-12-08T07:17:13.886Z,1.00
2018-12-08T07:19:43.127Z,1.00
2018-12-08T07:22:12.386Z,1.00
2018-12-08T07:24:41.729Z,1.00
2018-12-08T07:27:10.975Z,1.00
2018-12-08T07:29:40.345Z,1.00
2018-12-08T07:32:09.609Z,1.00
2018-12-08T07:34:38.963Z,1.00
2018-12-08T07:37:08.304Z,1.00
2018-12-08T07:39:37.556Z,1.00
2018-12-08T07:42:06.832Z,1.00
2018-12-08T07:44:36.163Z,1.00
2018-12-08T07:47:05.462Z,1.00
2018-12-08T07:49:34.765Z,1.00
2018-12-08T07:52:04.067Z,1.00
2018-12-08T07:54:33.308Z,1.00
2018-12-08T07:57:02.547Z,1.00
2018-12-08T07:59:31.886Z,1.00
2018-12-08T08:02:01.176Z,1.00
2018-12-08T08:04:30.636Z,1.00
2018-12-08T08:06:59.937Z,1.00
2018-12-08T08:09:29.180Z,1.00
2018-12-08T08:11:58.462Z,1.00
2018-12-08T08:14:27.715Z,1.00
2018-12-08T08:16:56.976Z,1.00
2018-12-08T08:19:26.220Z,1.00
2018-12-08T08:21:56.680Z,1.00
2018-12-08T08:24:25.885Z,1.00
2018-12-08T08:26:55.119Z,1.00
2018-12-08T08:29:24.366Z,1.00
2018-12-08T08:31:53.833Z,1.00
2018-12-08T08:34:23.109Z,1.00
2018-12-08T08:36:52.394Z,1.00
2018-12-08T08:39:21.656Z,1.00
2018-12-08T08:41:51.385Z,1.00
2018-12-08T08:44:20.626Z,1.00
2018-12-08T08:46:49.932Z,1.00
2018-12-08T08:49:19.245Z,99.90
2018-12-08T08:51:48.499Z,99.90
2018-12-08T08:54:17.840Z,99.90
2018-12-08T08:56:47.098Z,1.00
2018-12-08T08:59:16.337Z,1.00
2018-12-08T09:01:45.683Z,1.00
2018-12-08T09:04:14.909Z,1.00
2018-12-08T09:06:50.872Z,1.00
2018-12-08T09:09:20.226Z,1.00
2018-12-08T09:11:49.541Z,1.00
2018-12-08T09:14:18.935Z,1.00
2018-12-08T09:16:48.265Z,1.00
2018-12-08T09:19:17.613Z,1.00
2018-12-08T09:21:46.874Z,1.00
2018-12-08T09:24:16.241Z,1.00
2018-12-08T09:26:45.621Z,1.00
2018-12-08T09:29:15.058Z,1.00
2018-12-08T09:31:44.598Z,1.00
2018-12-08T09:34:13.865Z,1.00
2018-12-08T09:36:43.252Z,1.00
2018-12-08T09:39:12.532Z,1.00
2018-12-08T09:41:41.989Z,1.00
2018-12-08T09:44:11.241Z,1.00
2018-12-08T09:46:40.756Z,1.00
2018-12-08T09:49:10.204Z,1.00
2018-12-08T09:51:39.469Z,1.00
2018-12-08T09:54:08.749Z,1.00
2018-12-08T09:56:38.119Z,1.00
2018-12-08T09:59:07.374Z,1.00
2018-12-08T10:01:36.627Z,1.00
2018-12-08T10:04:05.903Z,1.00
2018-12-08T10:06:35.342Z,1.00
2018-12-08T10:09:05.920Z,1.00
2018-12-08T10:11:35.156Z,1.00
2018-12-08T10:14:04.557Z,1.00
2018-12-08T10:16:33.898Z,1.00
2018-12-08T10:19:03.169Z,1.00
2018-12-08T10:21:32.540Z,1.00
2018-12-08T10:24:01.907Z,1.00
2018-12-08T10:26:31.340Z,1.00
2018-12-08T10:29:00.649Z,1.00
2018-12-08T10:31:30.240Z,1.00
2018-12-08T10:33:59.891Z,1.00
2018-12-08T10:36:29.281Z,1.00
2018-12-08T10:38:58.547Z,1.00
2018-12-08T10:41:27.969Z,1.90
2018-12-08T10:43:57.438Z,1.00
2018-12-08T10:46:27.185Z,7.50
2018-12-08T10:48:56.915Z,32.40
2018-12-08T10:51:26.479Z,21.00
2018-12-08T10:53:56.274Z,36.00
2018-12-08T10:56:26.017Z,47.00
2018-12-08T10:58:55.405Z,52.30
2018-12-08T11:01:27.458Z,49.20
2018-12-08T11:03:57.036Z,59.20
2018-12-08T11:06:26.711Z,63.70
2018-12-08T11:08:56.005Z,57.60
2018-12-08T11:11:25.555Z,63.50
2018-12-08T11:13:55.159Z,48.50
2018-12-08T11:16:24.739Z,76.50
2018-12-08T11:18:54.128Z,56.40
2018-12-08T11:21:23.396Z,64.30
2018-12-08T11:23:52.688Z,93.50
2018-12-08T11:26:22.079Z,81.70
2018-12-08T11:28:51.329Z,69.30
2018-12-08T11:31:20.624Z,78.60
2018-12-08T11:33:49.914Z,78.80
2018-12-08T11:36:19.394Z,83.50
2018-12-08T11:38:48.677Z,85.90
2018-12-08T11:41:17.990Z,91.10
2018-12-08T11:43:47.242Z,94.10
2018-12-08T11:46:16.509Z,88.90
2018-12-08T11:48:45.878Z,94.40
2018-12-08T11:51:15.157Z,88.30
2018-12-08T11:53:44.469Z,90.90
2018-12-08T11:56:13.907Z,93.60
2018-12-08T11:58:43.187Z,93.20
2018-12-08T12:01:12.534Z,80.30
2018-12-08T12:03:41.923Z,91.90
2018-12-08T12:06:11.450Z,89.70
2018-12-08T12:08:40.782Z,82.50
2018-12-08T12:11:10.331Z,83.20
2018-12-08T12:13:39.675Z,77.80
2018-12-08T12:16:08.980Z,59.60
2018-12-08T12:18:38.240Z,63.70
2018-12-08T12:21:07.577Z,65.00
2018-12-08T12:23:36.813Z,48.30
2018-12-08T12:26:06.301Z,62.60
2018-12-08T12:28:35.702Z,57.90
2018-12-08T12:31:04.937Z,71.50
2018-12-08T12:33:34.388Z,68.60
2018-12-08T12:36:03.983Z,82.80
2018-12-08T12:38:33.237Z,82.00
2018-12-08T12:41:02.568Z,71.30
2018-12-08T12:43:32.040Z,49.40
2018-12-08T12:46:01.333Z,83.50
2018-12-08T12:48:30.631Z,80.40
2018-12-08T12:50:59.879Z,91.10
2018-12-08T12:53:29.153Z,98.70
2018-12-08T12:55:58.401Z,97.70
2018-12-08T12:58:27.717Z,96.40
2018-12-08T13:00:56.981Z,98.90
2018-12-08T13:03:26.266Z,96.50
2018-12-08T13:05:55.544Z,97.80
2018-12-08T13:08:24.817Z,99.90
2018-12-08T13:10:54.141Z,93.80
2018-12-08T13:13:23.429Z,98.20
2018-12-08T13:15:52.689Z,99.90
2018-12-08T13:18:21.964Z,99.90
2018-12-08T13:20:51.237Z,99.90
2018-12-08T13:23:20.530Z,99.90
2018-12-08T13:25:49.828Z,99.90
2018-12-08T13:28:19.201Z,99.90
2018-12-08T13:30:48.508Z,99.90
2018-12-08T13:33:17.797Z,99.90
2018-12-08T13:35:52.166Z,99.90
2018-12-08T13:38:23.425Z,99.90
2018-12-08T13:40:52.893Z,99.90
2018-12-08T13:43:22.130Z,99.90
2018-12-08T13:45:51.422Z,99.90
2018-12-08T13:48:23.122Z,99.90
2018-12-08T13:50:52.815Z,99.90
2018-12-08T13:53:22.134Z,99.90
2018-12-08T13:55:51.430Z,99.90
2018-12-08T13:58:20.677Z,99.90
2018-12-08T14:00:49.932Z,99.90
2018-12-08T14:03:19.290Z,99.90
2018-12-08T14:05:48.680Z,99.90
2018-12-08T14:08:17.946Z,99.90
2018-12-08T14:10:47.255Z,99.90
2018-12-08T14:13:16.513Z,99.90
2018-12-08T14:15:45.860Z,99.90
2018-12-08T14:18:15.135Z,99.90
2018-12-08T14:20:44.408Z,99.90
2018-12-08T14:23:13.719Z,99.90
2018-12-08T14:25:42.977Z,99.90
2018-12-08T14:28:14.276Z,99.90
2018-12-08T14:30:43.639Z,99.90
2018-12-08T14:33:12.976Z,99.90
2018-12-08T14:35:42.237Z,99.90
2018-12-08T14:38:11.543Z,99.90
2018-12-08T14:40:40.867Z,99.90
2018-12-08T14:43:10.508Z,99.90
2018-12-08T14:45:39.807Z,99.90
2018-12-08T14:48:09.129Z,99.90
2018-12-08T14:50:38.427Z,99.90
2018-12-08T14:53:07.750Z,99.90
2018-12-08T14:55:37.030Z,99.90
2018-12-08T14:58:06.349Z,99.90
2018-12-08T15:00:35.646Z,99.90
2018-12-08T15:03:04.949Z,94.70
2018-12-08T15:05:34.234Z,99.50
2018-12-08T15:08:03.536Z,98.60
2018-12-08T15:10:32.864Z,95.50
2018-12-08T15:13:02.139Z,92.40
2018-12-08T15:15:31.484Z,93.70
2018-12-08T15:18:00.786Z,93.10
2018-12-08T15:20:30.049Z,92.50
2018-12-08T15:22:59.318Z,92.80
2018-12-08T15:25:28.595Z,87.20
2018-12-08T15:27:57.909Z,90.10
2018-12-08T15:30:27.189Z,88.60
2018-12-08T15:32:56.491Z,68.10
2018-12-08T15:35:25.789Z,71.70
2018-12-08T15:37:55.050Z,72.30
2018-12-08T15:40:24.414Z,87.10
2018-12-08T15:42:53.764Z,82.70
2018-12-08T15:45:23.037Z,92.60
2018-12-08T15:47:52.372Z,90.60
2018-12-08T15:50:21.766Z,91.60
2018-12-08T15:52:51.096Z,85.60
2018-12-08T15:55:20.408Z,78.20
2018-12-08T15:57:49.701Z,84.40
2018-12-08T16:00:18.999Z,92.00
2018-12-08T16:02:48.301Z,93.60
2018-12-08T16:05:17.568Z,93.20
2018-12-08T16:07:47.012Z,89.60
2018-12-08T16:10:16.328Z,95.30
2018-12-08T16:12:45.669Z,92.80
2018-12-08T16:15:15.237Z,90.90
2018-12-08T16:17:44.538Z,85.50
2018-12-08T16:20:14.270Z,90.80
2018-12-08T16:22:43.718Z,80.30
2018-12-08T16:25:13.125Z,84.80
2018-12-08T16:27:42.419Z,89.00
2018-12-08T16:30:11.851Z,71.90
2018-12-08T16:32:41.120Z,72.80
2018-12-08T16:35:11.068Z,78.20
2018-12-08T16:37:40.567Z,82.70
2018-12-08T16:40:10.014Z,83.00
2018-12-08T16:42:39.313Z,81.40
2018-12-08T16:45:09.240Z,71.90
2018-12-08T16:47:38.537Z,72.60
2018-12-08T16:50:09.472Z,85.00
2018-12-08T16:52:38.755Z,80.70
2018-12-08T16:55:08.167Z,79.00
2018-12-08T16:57:37.462Z,68.00
2018-12-08T17:00:07.969Z,83.70
2018-12-08T17:02:37.409Z,77.10
2018-12-08T17:05:06.773Z,66.60
2018-12-08T17:07:36.161Z,75.00
2018-12-08T17:10:07.050Z,72.80
2018-12-08T17:12:36.343Z,72.70
2018-12-08T17:15:05.838Z,77.70
2018-12-08T17:17:35.124Z,89.10
2018-12-08T17:20:07.033Z,89.10
2018-12-08T17:22:36.379Z,72.00
2018-12-08T17:25:05.966Z,63.70
2018-12-08T17:27:35.286Z,64.90
2018-12-08T17:30:04.759Z,68.50
2018-12-08T17:32:34.025Z,68.40
2018-12-08T17:35:03.486Z,59.90
2018-12-08T17:37:32.873Z,62.20
2018-12-08T17:40:02.198Z,62.60
2018-12-08T17:42:31.543Z,63.10
2018-12-08T17:45:00.817Z,58.60
2018-12-08T17:47:30.113Z,52.60
2018-12-08T17:49:59.409Z,57.30
2018-12-08T17:52:28.767Z,57.50
2018-12-08T17:54:58.056Z,49.80
2018-12-08T17:57:27.342Z,57.40
2018-12-08T17:59:56.864Z,54.70
2018-12-08T18:02:26.286Z,58.30
2018-12-08T18:04:55.627Z,61.30
2018-12-08T18:07:24.959Z,67.00
2018-12-08T18:09:54.209Z,67.70
2018-12-08T18:12:23.621Z,71.40
2018-12-08T18:14:52.974Z,73.40
2018-12-08T18:17:22.258Z,81.70
2018-12-08T18:19:51.562Z,88.30
2018-12-08T18:22:20.873Z,85.10
2018-12-08T18:24:50.225Z,87.40
2018-12-08T18:27:19.523Z,85.00
2018-12-08T18:29:48.794Z,85.80
2018-12-08T18:32:18.062Z,80.30
2018-12-08T18:34:47.330Z,90.90
2018-12-08T18:37:16.789Z,68.30
2018-12-08T18:39:46.035Z,71.90
2018-12-08T18:42:15.314Z,66.70
2018-12-08T18:44:44.601Z,67.40
2018-12-08T18:47:13.897Z,71.50
2018-12-08T18:49:43.281Z,71.30
2018-12-08T18:52:12.530Z,70.70
2018-12-08T18:54:41.805Z,71.70
2018-12-08T18:57:11.086Z,69.20
2018-12-08T18:59:40.417Z,73.90
2018-12-08T19:02:09.702Z,71.60
2018-12-08T19:04:39.022Z,72.10
2018-12-08T19:07:08.279Z,72.10
2018-12-08T19:09:37.670Z,72.30
2018-12-08T19:12:07.371Z,72.50
2018-12-08T19:14:36.773Z,76.80
2018-12-08T19:17:06.085Z,82.80
2018-12-08T19:19:35.370Z,77.20
2018-12-08T19:22:04.781Z,80.60
2018-12-08T19:24:34.045Z,80.50
2018-12-08T19:27:03.384Z,85.10
2018-12-08T19:29:32.715Z,88.00
2018-12-08T19:32:02.853Z,81.70
2018-12-08T19:34:32.346Z,82.30
2018-12-08T19:37:01.583Z,78.70
2018-12-08T19:39:30.846Z,83.40
2018-12-08T19:42:00.161Z,79.70
2018-12-08T19:44:29.529Z,85.40
2018-12-08T19:46:58.851Z,88.40
2018-12-08T19:49:28.142Z,94.60
2018-12-08T19:51:57.426Z,99.90
2018-12-08T19:54:26.819Z,99.90
2018-12-08T19:56:56.060Z,99.90
2018-12-08T19:59:25.352Z,99.90
2018-12-08T20:01:54.791Z,99.90
2018-12-08T20:04:24.345Z,99.90
2018-12-08T20:06:53.725Z,99.90
2018-12-08T20:09:23.309Z,99.90
2018-12-08T20:11:52.605Z,99.90
2018-12-08T20:14:21.894Z,99.90
2018-12-08T20:16:51.145Z,99.90
2018-12-08T20:19:20.701Z,99.90
2018-12-08T20:21:49.978Z,99.90
2018-12-08T20:24:19.308Z,99.90
2018-12-08T20:26:48.622Z,99.90
2018-12-08T20:29:17.907Z,99.90
2018-12-08T20:31:47.223Z,99.90
2018-12-08T20:34:16.563Z,99.90
2018-12-08T20:36:45.846Z,99.90
2018-12-08T20:39:15.226Z,99.90
2018-12-08T20:41:44.581Z,99.90
2018-12-08T20:44:13.874Z,99.90
2018-12-08T20:46:43.257Z,99.90
2018-12-08T20:49:12.651Z,99.90
2018-12-08T20:51:41.934Z,99.90
2018-12-08T20:54:11.192Z,99.90
2018-12-08T20:56:40.480Z,99.90
2018-12-08T20:59:09.732Z,99.90
2018-12-08T21:01:39.037Z,99.90
2018-12-08T21:04:08.409Z,99.90
2018-12-08T21:06:39.234Z,99.90
2018-12-08T21:09:08.699Z,99.90
2018-12-08T21:11:38.143Z,99.90
2018-12-08T21:14:07.453Z,99.90
2018-12-08T21:16:36.770Z,99.90
2018-12-08T21:19:06.018Z,99.90
2018-12-08T21:21:35.300Z,99.90
2018-12-08T21:24:04.652Z,99.90
2018-12-08T21:26:34.243Z,99.90
2018-12-08T21:29:03.568Z,99.90
2018-12-08T21:31:32.858Z,99.90
2018-12-08T21:34:02.106Z,99.90
2018-12-08T21:36:32.039Z,99.90
2018-12-08T21:39:01.297Z,99.90
2018-12-08T21:41:32.746Z,99.90
2018-12-08T21:44:02.053Z,99.90
2018-12-08T21:46:31.337Z,99.90
2018-12-08T21:49:00.623Z,99.90
2018-12-08T21:51:29.913Z,99.90
2018-12-08T21:53:59.183Z,99.90
2018-12-08T21:56:28.554Z,99.90
2018-12-08T21:58:57.899Z,99.90
2018-12-08T22:01:27.165Z,99.90
2018-12-08T22:03:56.572Z,99.90
2018-12-08T22:06:25.853Z,99.90
2018-12-08T22:08:55.142Z,99.90
2018-12-08T22:11:24.418Z,99.90
2018-12-08T22:13:53.684Z,99.90
2018-12-08T22:16:22.953Z,99.90
2018-12-08T22:18:52.755Z,99.90
2018-12-08T22:21:22.030Z,99.90
2018-12-08T22:23:51.278Z,99.90
2018-12-08T22:26:20.690Z,99.90
2018-12-08T22:28:49.956Z,99.90
2018-12-08T22:31:19.217Z,99.90
2018-12-08T22:33:48.486Z,99.90
2018-12-08T22:36:17.757Z,99.90
2018-12-08T22:38:47.053Z,99.90
2018-12-08T22:41:16.334Z,99.90
2018-12-08T22:43:45.612Z,99.90
2018-12-08T22:46:14.901Z,99.90
2018-12-08T22:48:44.991Z,99.40
2018-12-08T22:51:14.226Z,99.90
2018-12-08T22:53:43.499Z,97.60
2018-12-08T22:56:12.744Z,99.20
2018-12-08T22:58:42.065Z,97.50
2018-12-08T23:01:11.457Z,94.30
2018-12-08T23:03:40.744Z,92.80
2018-12-08T23:06:10.069Z,90.00
2018-12-08T23:08:39.313Z,88.60
2018-12-08T23:11:08.572Z,80.90
2018-12-08T23:13:37.820Z,77.70
2018-12-08T23:16:07.074Z,73.60
2018-12-08T23:18:36.330Z,68.90
2018-12-08T23:21:05.588Z,70.70
2018-12-08T23:23:34.801Z,56.90
2018-12-08T23:26:04.205Z,62.00
2018-12-08T23:28:33.481Z,69.10
2018-12-08T23:31:02.895Z,92.10
2018-12-08T23:33:32.178Z,96.10
2018-12-08T23:36:01.396Z,99.90
2018-12-08T23:38:30.631Z,99.90
2018-12-08T23:40:59.883Z,99.80
2018-12-08T23:43:29.151Z,99.90
2018-12-08T23:45:58.421Z,99.90
2018-12-08T23:48:27.665Z,99.90
2018-12-08T23:50:56.941Z,99.90
2018-12-08T23:53:26.181Z,99.90
2018-12-08T23:55:55.442Z,94.60
2018-12-08T23:58:24.700Z,94.20
